Time;durP1;ratioP1;P1;durP2;ratioP2;P2;SDS_P1;SDS_P2;PMS_P1;PMS_P2;Temp;Humidity;BMP_temperature;BMP_pressure;BME280_temperature;BME280_humidity;BME280_pressure;Samples;Min_cycle;Max_cycle;Signal;HPM_P1;HPM_P2
2021/03/03 00:00:36;;;;;;;31.33;20.20;;;4.00;99.90;;;;;;4985296;28;20196;-78
2021/03/03 00:03:02;;;;;;;29.47;18.77;;;4.00;99.90;;;;;;4986525;28;20207;-76
2021/03/03 00:05:28;;;;;;;28.87;18.93;;;4.00;99.90;;;;;;4972689;28;20614;-78
2021/03/03 00:07:54;;;;;;;28.27;17.67;;;3.90;99.90;;;;;;4966608;28;20260;-78
2021/03/03 00:10:21;;;;;;;31.83;18.87;;;3.90;99.90;;;;;;4966940;28;20212;-79
2021/03/03 00:12:47;;;;;;;30.70;19.23;;;3.90;99.90;;;;;;4968847;28;20204;-78
2021/03/03 00:15:14;;;;;;;26.50;17.27;;;3.90;99.90;;;;;;4986217;28;20212;-78
2021/03/03 00:17:42;;;;;;;29.83;18.47;;;3.90;99.90;;;;;;4985546;28;20192;-77
2021/03/03 00:20:09;;;;;;;28.07;19.47;;;3.90;99.90;;;;;;4985921;28;20228;-79
2021/03/03 00:22:36;;;;;;;29.47;18.93;;;3.90;99.90;;;;;;4985928;28;20314;-79
2021/03/03 00:25:02;;;;;;;27.77;18.80;;;3.90;99.90;;;;;;4986903;28;20208;-78
2021/03/03 00:27:29;;;;;;;29.87;19.00;;;3.90;99.90;;;;;;4975799;28;20216;-77
2021/03/03 00:29:55;;;;;;;36.53;21.27;;;3.80;99.90;;;;;;4983165;28;20404;-78
2021/03/03 00:32:21;;;;;;;31.83;19.50;;;3.80;99.90;;;;;;4970142;28;20213;-79
2021/03/03 00:34:49;;;;;;;29.70;19.17;;;3.80;99.90;;;;;;4966070;28;20197;-79
2021/03/03 00:37:15;;;;;;;34.20;21.43;;;3.80;99.90;;;;;;4966496;28;20193;-79
2021/03/03 00:39:41;;;;;;;33.57;21.20;;;3.80;99.90;;;;;;4966361;28;20267;-78
2021/03/03 00:42:08;;;;;;;33.60;21.10;;;3.80;99.90;;;;;;4966529;28;20219;-78
2021/03/03 00:44:34;;;;;;;33.87;21.33;;;3.80;99.90;;;;;;4965341;28;20204;-78
2021/03/03 00:47:00;;;;;;;32.60;20.93;;;3.80;99.90;;;;;;4966546;28;20267;-78
2021/03/03 00:49:27;;;;;;;38.00;22.63;;;3.80;99.90;;;;;;4972092;28;20204;-78
2021/03/03 00:51:54;;;;;;;40.40;23.67;;;3.70;99.90;;;;;;4985614;28;20236;-77
2021/03/03 00:54:20;;;;;;;36.60;22.93;;;3.70;99.90;;;;;;4985903;28;20207;-79
2021/03/03 00:56:47;;;;;;;36.70;23.13;;;3.70;99.90;;;;;;4970871;28;20269;-78
2021/03/03 00:59:13;;;;;;;33.47;21.87;;;3.70;99.90;;;;;;4965973;28;20279;-78
2021/03/03 01:01:39;;;;;;;34.57;22.87;;;3.70;99.90;;;;;;4965616;28;20199;-78
2021/03/03 01:04:05;;;;;;;37.27;23.30;;;3.70;99.90;;;;;;4979500;28;20208;-77
2021/03/03 01:06:32;;;;;;;35.30;22.27;;;3.70;99.90;;;;;;4978352;28;20212;-77
2021/03/03 01:08:59;;;;;;;35.93;21.57;;;3.70;99.90;;;;;;4966218;28;20205;-78
2021/03/03 01:11:25;;;;;;;32.67;21.77;;;3.70;99.90;;;;;;4964117;28;20209;-79
2021/03/03 01:13:52;;;;;;;36.63;22.63;;;3.70;99.90;;;;;;4965214;28;20209;-77
2021/03/03 01:16:18;;;;;;;37.43;24.77;;;3.70;99.90;;;;;;4965486;28;20205;-78
2021/03/03 01:18:44;;;;;;;39.27;24.33;;;3.70;99.90;;;;;;4964993;28;20228;-78
2021/03/03 01:21:11;;;;;;;40.07;24.60;;;3.70;99.90;;;;;;4966337;28;20216;-78
2021/03/03 01:23:37;;;;;;;42.07;24.47;;;3.70;99.90;;;;;;4964292;28;20200;-76
2021/03/03 01:26:04;;;;;;;40.80;24.13;;;3.70;99.90;;;;;;4968989;28;20460;-78
2021/03/03 01:28:31;;;;;;;41.90;24.93;;;3.70;99.90;;;;;;4985098;28;20216;-78
2021/03/03 01:30:57;;;;;;;44.67;26.73;;;3.70;99.90;;;;;;4984383;28;20191;-78
2021/03/03 01:33:25;;;;;;;40.33;25.87;;;3.70;99.90;;;;;;4985127;28;20204;-78
2021/03/03 01:35:51;;;;;;;42.40;26.17;;;3.70;99.90;;;;;;4972153;28;20999;-78
2021/03/03 01:38:17;;;;;;;42.77;26.37;;;3.70;99.90;;;;;;4965745;28;20227;-79
2021/03/03 01:40:44;;;;;;;45.87;27.50;;;3.70;99.90;;;;;;4981309;28;20644;-78
2021/03/03 01:43:11;;;;;;;37.73;24.57;;;3.70;99.90;;;;;;4985061;28;20208;-78
2021/03/03 01:45:37;;;;;;;44.53;25.67;;;3.70;99.90;;;;;;4984600;28;20235;-77
2021/03/03 01:48:04;;;;;;;38.10;24.03;;;3.70;99.90;;;;;;4985040;28;20208;-78
2021/03/03 01:50:31;;;;;;;40.13;25.80;;;3.70;99.90;;;;;;4985137;28;20629;-78
2021/03/03 01:52:57;;;;;;;43.13;24.80;;;3.70;99.90;;;;;;4984940;28;20207;-79
2021/03/03 01:55:24;;;;;;;42.43;25.13;;;3.60;99.90;;;;;;4985033;28;20204;-79
2021/03/03 01:57:52;;;;;;;37.43;23.77;;;3.60;99.90;;;;;;4985070;28;20216;-78
2021/03/03 02:00:20;;;;;;;39.10;24.33;;;3.60;99.90;;;;;;4983970;28;20786;-79
2021/03/03 02:02:46;;;;;;;41.50;24.87;;;3.60;99.90;;;;;;4984482;28;20263;-78
2021/03/03 02:05:14;;;;;;;45.77;27.47;;;3.60;99.90;;;;;;4984398;28;20220;-78
2021/03/03 02:07:49;;;;;;;46.93;26.70;;;3.60;99.90;;;;;;4973391;28;20216;-79
2021/03/03 02:10:20;;;;;;;39.63;24.27;;;3.60;99.90;;;;;;4965855;28;20219;-77
2021/03/03 02:12:51;;;;;;;41.00;24.47;;;3.60;99.90;;;;;;4965338;28;20197;-78
2021/03/03 02:15:20;;;;;;;45.50;26.53;;;3.60;99.90;;;;;;4966731;28;20204;-79
2021/03/03 02:17:47;;;;;;;44.33;25.50;;;3.50;99.90;;;;;;4965601;28;20201;-79
2021/03/03 02:20:16;;;;;;;42.97;26.00;;;3.50;99.90;;;;;;4964233;28;20236;-76
2021/03/03 02:22:54;;;;;;;41.87;25.77;;;3.50;99.90;;;;;;4965362;28;20193;-79
2021/03/03 02:25:25;;;;;;;42.80;25.73;;;3.50;99.90;;;;;;4985575;28;20203;-79
2021/03/03 02:27:53;;;;;;;37.37;24.27;;;3.50;99.90;;;;;;4984511;28;20208;-79
2021/03/03 02:30:21;;;;;;;44.53;26.33;;;3.50;99.90;;;;;;4976700;28;20563;-78
2021/03/03 02:32:48;;;;;;;40.97;25.67;;;3.50;99.90;;;;;;4982846;28;20200;-77
2021/03/03 02:35:15;;;;;;;47.40;26.63;;;3.50;99.90;;;;;;4983308;28;20534;-77
2021/03/03 02:37:43;;;;;;;42.23;26.10;;;3.40;99.90;;;;;;4976611;28;20217;-77
2021/03/03 02:40:11;;;;;;;44.20;25.67;;;3.40;99.90;;;;;;4979574;28;20238;-77
2021/03/03 02:42:41;;;;;;;44.07;25.37;;;3.40;99.90;;;;;;4983339;28;20215;-78
2021/03/03 02:45:09;;;;;;;38.27;25.83;;;3.40;99.90;;;;;;4983579;28;20224;-78
2021/03/03 02:47:37;;;;;;;46.43;27.63;;;3.40;99.90;;;;;;4984435;28;20236;-77
2021/03/03 02:50:04;;;;;;;37.87;25.33;;;3.40;99.90;;;;;;4982952;28;20204;-78
2021/03/03 02:52:30;;;;;;;44.93;26.83;;;3.40;99.90;;;;;;4981691;28;20219;-77
2021/03/03 02:54:57;;;;;;;42.17;27.40;;;3.40;99.90;;;;;;4982782;28;20231;-77
2021/03/03 02:57:23;;;;;;;45.20;27.77;;;3.40;99.90;;;;;;4984163;28;20263;-77
2021/03/03 02:59:52;;;;;;;49.83;28.23;;;3.40;99.90;;;;;;4982482;28;20597;-78
2021/03/03 03:02:23;;;;;;;56.57;31.13;;;3.40;99.90;;;;;;4964139;28;20212;-78
2021/03/03 03:04:52;;;;;;;55.23;29.60;;;3.50;99.90;;;;;;4964127;28;20215;-79
2021/03/03 03:07:20;;;;;;;49.07;27.00;;;3.60;99.90;;;;;;4976848;28;20263;-78
2021/03/03 03:09:50;;;;;;;45.50;27.23;;;3.60;99.90;;;;;;4981334;28;20216;-78
2021/03/03 03:12:18;;;;;;;47.87;27.50;;;3.70;99.90;;;;;;4968513;28;20251;-78
2021/03/03 03:14:46;;;;;;;43.60;26.87;;;3.60;99.90;;;;;;4968013;28;20204;-77
2021/03/03 03:17:17;;;;;;;43.83;26.50;;;3.60;99.90;;;;;;4968315;28;20212;-78
2021/03/03 03:19:46;;;;;;;47.27;27.70;;;3.60;99.90;;;;;;4967391;28;20692;-77
2021/03/03 03:22:15;;;;;;;42.63;26.57;;;3.60;99.90;;;;;;4967706;28;20867;-77
2021/03/03 03:24:44;;;;;;;41.77;24.83;;;3.60;99.90;;;;;;4974718;28;20295;-77
2021/03/03 03:27:11;;;;;;;39.50;24.73;;;3.50;99.90;;;;;;4987954;28;20200;-78
2021/03/03 03:29:39;;;;;;;44.50;24.87;;;3.50;99.90;;;;;;4986630;28;20255;-78
2021/03/03 03:32:06;;;;;;;39.90;25.10;;;3.50;99.90;;;;;;4987027;28;20223;-78
2021/03/03 03:34:34;;;;;;;35.33;21.47;;;3.50;99.90;;;;;;4974902;28;20204;-78
2021/03/03 03:37:01;;;;;;;37.53;24.23;;;3.50;99.90;;;;;;4967229;28;20803;-78
2021/03/03 03:39:27;;;;;;;41.50;25.53;;;3.40;99.90;;;;;;4967626;28;20224;-78
2021/03/03 03:41:54;;;;;;;36.30;22.30;;;3.40;99.90;;;;;;4967848;28;20563;-78
2021/03/03 03:44:21;;;;;;;42.67;26.03;;;3.40;99.90;;;;;;4967804;28;20442;-79
2021/03/03 03:46:48;;;;;;;41.33;26.37;;;3.30;99.90;;;;;;4966347;28;20220;-78
2021/03/03 03:49:15;;;;;;;41.20;24.77;;;3.30;99.90;;;;;;4967214;28;20264;-77
2021/03/03 03:51:43;;;;;;;45.17;26.47;;;3.30;99.90;;;;;;4984528;28;20240;-76
2021/03/03 03:54:10;;;;;;;57.60;31.57;;;3.40;99.90;;;;;;4986511;28;20533;-78
2021/03/03 03:56:37;;;;;;;58.53;29.93;;;3.40;99.90;;;;;;4971197;28;20208;-78
2021/03/03 03:59:03;;;;;;;60.43;32.90;;;3.60;99.90;;;;;;4966552;28;20224;-78
2021/03/03 04:01:30;;;;;;;66.87;32.80;;;3.70;99.90;;;;;;4966725;28;20219;-77
2021/03/03 04:03:56;;;;;;;64.10;33.20;;;3.90;99.90;;;;;;4984544;28;20283;-78
2021/03/03 04:06:22;;;;;;;62.00;33.13;;;4.20;99.90;;;;;;4985765;28;20208;-78
2021/03/03 04:08:49;;;;;;;65.63;33.80;;;4.30;99.90;;;;;;4975274;28;20216;-78
2021/03/03 04:11:16;;;;;;;66.73;33.20;;;4.40;99.90;;;;;;4966643;28;20202;-78
2021/03/03 04:13:42;;;;;;;67.07;31.87;;;4.40;99.90;;;;;;4965679;28;20215;-77
2021/03/03 04:16:09;;;;;;;82.23;30.60;;;4.60;99.90;;;;;;4981479;28;20212;-77
2021/03/03 04:18:35;;;;;;;61.60;29.43;;;4.80;99.90;;;;;;4983186;28;20255;-77
2021/03/03 04:21:02;;;;;;;38.90;24.60;;;4.80;99.90;;;;;;4965512;28;20509;-77
2021/03/03 04:23:28;;;;;;;46.67;22.43;;;4.70;99.90;;;;;;4965981;28;20205;-78
2021/03/03 04:25:55;;;;;;;33.27;21.40;;;4.70;99.90;;;;;;4967531;28;20212;-79
2021/03/03 04:28:22;;;;;;;33.30;20.67;;;4.60;99.90;;;;;;4970359;28;20211;-78
2021/03/03 04:30:48;;;;;;;32.57;18.90;;;4.50;99.90;;;;;;4985495;28;20204;-78
2021/03/03 04:33:14;;;;;;;21.77;17.90;;;4.50;99.90;;;;;;4985126;28;20275;-78
2021/03/03 04:35:41;;;;;;;19.83;16.67;;;4.50;99.90;;;;;;4983855;28;20208;-78
2021/03/03 04:38:09;;;;;;;19.03;15.27;;;4.40;99.90;;;;;;4986330;28;20208;-78
2021/03/03 04:40:35;;;;;;;179.47;24.23;;;4.40;99.90;;;;;;4984720;28;20662;-77
2021/03/03 04:43:03;;;;;;;45.73;16.73;;;4.40;99.90;;;;;;4986335;28;20215;-78
2021/03/03 04:45:29;;;;;;;36.77;16.73;;;4.40;99.90;;;;;;4985815;28;20536;-77
2021/03/03 04:47:55;;;;;;;58.67;17.73;;;4.40;99.90;;;;;;4985626;28;20207;-77
2021/03/03 04:50:22;;;;;;;92.70;20.70;;;4.40;99.90;;;;;;4971397;28;20224;-78
2021/03/03 04:52:48;;;;;;;41.83;17.40;;;4.30;99.90;;;;;;4965283;28;20240;-77
2021/03/03 04:55:14;;;;;;;87.57;18.83;;;4.40;99.90;;;;;;4965951;28;20200;-78
2021/03/03 04:57:40;;;;;;;75.30;18.80;;;4.30;99.90;;;;;;4965559;28;20204;-77
2021/03/03 05:00:09;;;;;;;48.90;18.10;;;4.30;99.90;;;;;;4966340;28;20225;-78
2021/03/03 05:02:35;;;;;;;67.33;20.23;;;4.30;99.90;;;;;;4964429;28;20197;-79
2021/03/03 05:05:01;;;;;;;31.43;17.63;;;4.40;99.90;;;;;;4966095;28;20334;-78
2021/03/03 05:07:28;;;;;;;31.17;18.60;;;4.40;99.90;;;;;;4965414;28;20220;-78
2021/03/03 05:09:54;;;;;;;25.60;16.70;;;4.30;99.90;;;;;;4965445;28;20255;-78
2021/03/03 05:12:20;;;;;;;65.87;19.23;;;4.30;99.90;;;;;;4966694;28;20511;-78
2021/03/03 05:14:46;;;;;;;32.17;18.97;;;4.40;99.90;;;;;;4965150;28;20659;-79
2021/03/03 05:17:14;;;;;;;54.37;20.17;;;4.40;99.90;;;;;;4966492;28;20345;-78
2021/03/03 05:19:40;;;;;;;29.07;17.50;;;4.40;99.90;;;;;;4965171;28;20224;-79
2021/03/03 05:22:06;;;;;;;89.77;21.60;;;4.40;99.90;;;;;;4965885;28;20235;-77
2021/03/03 05:24:33;;;;;;;64.43;20.90;;;4.40;99.90;;;;;;4965058;28;20212;-78
2021/03/03 05:26:59;;;;;;;21.27;16.83;;;4.40;99.90;;;;;;4966902;28;20208;-78
2021/03/03 05:29:25;;;;;;;41.17;19.07;;;4.40;99.90;;;;;;4977797;28;20215;-78
2021/03/03 05:31:51;;;;;;;37.30;19.87;;;4.40;99.90;;;;;;4983832;28;20208;-78
2021/03/03 05:34:19;;;;;;;31.77;19.00;;;4.40;99.90;;;;;;4985029;28;20210;-78
2021/03/03 05:36:45;;;;;;;54.20;19.73;;;4.40;99.90;;;;;;4984162;28;20758;-78
2021/03/03 05:39:11;;;;;;;37.97;20.40;;;4.40;99.90;;;;;;4984782;28;20230;-79
2021/03/03 05:41:37;;;;;;;55.53;22.37;;;4.50;99.90;;;;;;4983985;28;20612;-78
2021/03/03 05:44:06;;;;;;;29.87;19.57;;;4.40;99.90;;;;;;4984849;28;20223;-77
2021/03/03 05:46:33;;;;;;;46.47;24.07;;;4.40;99.90;;;;;;4984108;28;20235;-78
2021/03/03 05:49:02;;;;;;;61.33;25.30;;;4.40;99.90;;;;;;4966364;28;20197;-78
2021/03/03 05:51:31;;;;;;;42.37;23.33;;;4.50;99.90;;;;;;4964902;28;20240;-78
2021/03/03 05:53:59;;;;;;;43.77;25.30;;;4.40;99.90;;;;;;4965465;28;20208;-78
2021/03/03 05:56:26;;;;;;;33.40;24.27;;;4.40;99.90;;;;;;4983001;28;20216;-78
2021/03/03 05:58:54;;;;;;;37.63;27.07;;;4.40;99.90;;;;;;4979620;28;20224;-77
2021/03/03 06:01:22;;;;;;;71.43;31.43;;;4.40;99.90;;;;;;4965700;28;20197;-78
2021/03/03 06:03:49;;;;;;;38.30;27.73;;;4.40;99.90;;;;;;4965735;28;20209;-79
2021/03/03 06:06:15;;;;;;;45.97;26.93;;;4.40;99.90;;;;;;4965009;28;20680;-79
2021/03/03 06:08:42;;;;;;;35.90;26.40;;;4.40;99.90;;;;;;4965290;28;20243;-78
2021/03/03 06:11:09;;;;;;;50.30;32.87;;;4.40;99.90;;;;;;4966113;28;20208;-78
2021/03/03 06:13:35;;;;;;;79.30;32.03;;;4.40;99.90;;;;;;4980530;28;20230;-78
2021/03/03 06:16:02;;;;;;;41.77;29.70;;;4.50;99.90;;;;;;4984739;28;20234;-78
2021/03/03 06:18:28;;;;;;;43.47;29.37;;;4.50;99.90;;;;;;4984160;28;20577;-78
2021/03/03 06:20:56;;;;;;;112.17;36.03;;;4.40;99.90;;;;;;4983884;28;20203;-78
2021/03/03 06:23:25;;;;;;;44.07;29.73;;;4.50;99.90;;;;;;4984579;28;20207;-78
2021/03/03 06:26:11;;;;;;;52.37;32.03;;;4.40;99.90;;;;;;4984549;28;20215;-78
2021/03/03 06:28:40;;;;;;;46.80;30.40;;;4.40;99.90;;;;;;4983992;28;20216;-78
2021/03/03 06:31:27;;;;;;;57.40;31.13;;;4.40;99.90;;;;;;4984075;28;20204;-78
2021/03/03 06:33:54;;;;;;;46.60;30.40;;;4.40;99.90;;;;;;4983828;28;20218;-77
2021/03/03 06:36:22;;;;;;;51.27;30.33;;;4.50;99.90;;;;;;4984283;28;20270;-77
2021/03/03 06:38:49;;;;;;;88.07;33.63;;;4.40;99.90;;;;;;4972516;28;20243;-78
2021/03/03 06:41:16;;;;;;;64.83;32.07;;;4.50;99.90;;;;;;4964897;28;20182;-78
2021/03/03 06:43:55;;;;;;;46.87;31.43;;;4.50;99.90;;;;;;4969661;28;20215;-77
2021/03/03 06:46:22;;;;;;;73.53;33.90;;;4.50;99.90;;;;;;4988685;28;20227;-78
2021/03/03 06:48:49;;;;;;;53.30;31.17;;;4.50;99.90;;;;;;4987455;28;20196;-78
2021/03/03 06:51:29;;;;;;;49.90;32.03;;;4.50;99.90;;;;;;4987936;28;20662;-78
2021/03/03 06:53:57;;;;;;;48.93;31.37;;;4.50;99.90;;;;;;4987645;28;20214;-78
2021/03/03 06:56:38;;;;;;;74.20;35.97;;;4.50;99.90;;;;;;4988174;28;20212;-80
2021/03/03 06:59:13;;;;;;;55.90;33.83;;;4.60;99.90;;;;;;4987881;28;20231;-80
2021/03/03 07:01:39;;;;;;;55.47;36.73;;;4.60;99.90;;;;;;4986699;28;20210;-79
2021/03/03 07:04:21;;;;;;;99.97;36.53;;;4.60;99.90;;;;;;4987025;28;20208;-80
2021/03/03 07:06:48;;;;;;;54.93;33.80;;;4.60;99.90;;;;;;4987442;28;20196;-81
2021/03/03 07:09:15;;;;;;;53.53;35.07;;;4.60;99.90;;;;;;4987193;28;20203;-80
2021/03/03 07:11:43;;;;;;;53.20;35.33;;;4.60;99.90;;;;;;4980909;28;20567;-80
2021/03/03 07:14:15;;;;;;;68.77;37.27;;;4.60;99.90;;;;;;4968048;28;20205;-81
2021/03/03 07:17:05;;;;;;;73.43;39.67;;;4.70;99.90;;;;;;4967228;28;20256;-81
2021/03/03 07:19:32;;;;;;;70.23;39.87;;;4.80;99.90;;;;;;4967823;28;20252;-79
2021/03/03 07:21:58;;;;;;;64.47;39.87;;;4.80;99.90;;;;;;4968015;28;20261;-80
2021/03/03 07:24:26;;;;;;;74.87;39.47;;;4.80;99.90;;;;;;4967725;28;20211;-80
2021/03/03 07:26:54;;;;;;;64.13;40.00;;;4.80;99.90;;;;;;4967939;28;20209;-81
2021/03/03 07:29:20;;;;;;;60.20;38.17;;;4.80;99.90;;;;;;4978404;28;20215;-80
2021/03/03 07:31:46;;;;;;;75.17;42.30;;;4.80;99.90;;;;;;4987235;28;20207;-80
2021/03/03 07:34:13;;;;;;;72.60;40.17;;;4.80;99.90;;;;;;4987134;28;20564;-81
2021/03/03 07:36:40;;;;;;;68.97;38.97;;;4.90;99.90;;;;;;4968246;28;20267;-81
2021/03/03 07:39:08;;;;;;;64.03;39.67;;;4.90;99.90;;;;;;4969558;28;20221;-81
2021/03/03 07:41:43;;;;;;;106.13;43.53;;;4.90;99.90;;;;;;4967384;28;20208;-80
2021/03/03 07:44:13;;;;;;;73.00;41.20;;;4.90;99.90;;;;;;4977560;28;20207;-81
2021/03/03 07:46:41;;;;;;;84.97;42.83;;;4.90;99.90;;;;;;4986230;28;20628;-80
2021/03/03 07:49:09;;;;;;;80.40;44.97;;;5.00;99.90;;;;;;4986282;28;20204;-81
2021/03/03 07:51:36;;;;;;;82.70;45.50;;;5.00;99.90;;;;;;4984896;28;20243;-80
2021/03/03 07:54:03;;;;;;;90.23;44.93;;;5.10;99.90;;;;;;4990150;28;20203;-81
2021/03/03 07:56:30;;;;;;;78.87;42.60;;;5.10;99.90;;;;;;4989538;28;20589;-80
2021/03/03 07:58:58;;;;;;;71.90;41.30;;;5.10;99.90;;;;;;4987910;28;20227;-81
2021/03/03 08:01:26;;;;;;;104.70;46.90;;;5.10;99.90;;;;;;4981587;28;20505;-80
2021/03/03 08:03:53;;;;;;;76.33;42.87;;;5.10;99.90;;;;;;4968491;28;20268;-80
2021/03/03 08:06:37;;;;;;;105.03;45.63;;;5.10;99.90;;;;;;4975477;28;20210;-80
2021/03/03 08:09:14;;;;;;;85.30;44.00;;;5.10;99.90;;;;;;4967185;28;20203;-80
2021/03/03 08:12:06;;;;;;;86.47;43.80;;;5.20;99.90;;;;;;4959688;28;20204;-78
2021/03/03 08:14:35;;;;;;;85.40;44.53;;;5.20;99.90;;;;;;4966995;28;20248;-79
2021/03/03 08:17:04;;;;;;;87.33;43.57;;;5.20;99.90;;;;;;4967328;28;20205;-78
2021/03/03 08:19:58;;;;;;;83.73;45.03;;;5.30;99.90;;;;;;4977679;28;20236;-77
2021/03/03 08:22:52;;;;;;;92.27;45.97;;;5.30;99.90;;;;;;4986313;28;20586;-81
2021/03/03 08:25:45;;;;;;;84.63;42.57;;;5.30;99.90;;;;;;4969674;28;20240;-78
2021/03/03 08:31:36;;;;;;;82.27;42.90;;;5.30;99.90;;;;;;4955240;28;20199;-78
2021/03/03 08:34:07;;;;;;;82.10;43.23;;;5.30;99.90;;;;;;4985732;28;20216;-79
2021/03/03 08:37:04;;;;;;;84.90;43.33;;;5.30;99.90;;;;;;4985433;28;20204;-78
2021/03/03 08:39:32;;;;;;;91.53;42.63;;;5.40;99.90;;;;;;4906238;29;20569;-79
2021/03/03 08:41:59;;;;;;;88.20;43.17;;;5.40;99.90;;;;;;4953194;28;20209;-80
2021/03/03 08:44:25;;;;;;;88.20;44.60;;;5.40;99.90;;;;;;4967134;28;20209;-76
2021/03/03 08:46:53;;;;;;;99.70;45.67;;;5.40;99.90;;;;;;4972202;28;21000;-78
2021/03/03 08:49:31;;;;;;;100.17;44.80;;;5.40;99.90;;;;;;4986686;28;20294;-78
2021/03/03 08:52:12;;;;;;;92.73;43.17;;;5.50;99.90;;;;;;4978790;28;20248;-77
2021/03/03 08:54:46;;;;;;;87.97;43.07;;;5.50;99.90;;;;;;4965011;28;20212;-78
2021/03/03 08:57:32;;;;;;;99.83;45.27;;;5.50;99.90;;;;;;4966058;28;20255;-80
2021/03/03 08:59:59;;;;;;;93.23;43.37;;;5.50;99.90;;;;;;4966487;28;20239;-80
2021/03/03 09:02:40;;;;;;;83.27;42.13;;;5.50;99.90;;;;;;4971151;28;20217;-79
2021/03/03 09:05:12;;;;;;;84.03;41.30;;;5.50;99.90;;;;;;4966668;28;20760;-79
2021/03/03 09:07:39;;;;;;;97.77;44.13;;;5.50;99.90;;;;;;4965492;28;20219;-79
2021/03/03 09:10:09;;;;;;;94.60;42.70;;;5.60;99.90;;;;;;4984274;28;20294;-78
2021/03/03 09:12:39;;;;;;;82.33;39.10;;;5.60;99.90;;;;;;4984672;28;20216;-77
2021/03/03 09:15:08;;;;;;;90.97;41.07;;;5.60;99.90;;;;;;4984096;28;20294;-79
2021/03/03 09:17:36;;;;;;;89.50;40.73;;;5.60;99.90;;;;;;4975550;28;20653;-79
2021/03/03 09:20:07;;;;;;;91.40;42.00;;;5.60;99.90;;;;;;4966394;28;20220;-78
2021/03/03 09:22:39;;;;;;;81.90;39.33;;;5.70;99.90;;;;;;4974755;28;20207;-78
2021/03/03 09:25:11;;;;;;;86.83;42.63;;;5.60;99.90;;;;;;4983567;28;20215;-78
2021/03/03 09:27:39;;;;;;;86.80;41.37;;;5.70;99.90;;;;;;4983773;28;20196;-79
2021/03/03 09:30:07;;;;;;;88.23;39.73;;;5.70;99.90;;;;;;4967167;28;20295;-78
2021/03/03 09:32:34;;;;;;;90.80;40.53;;;5.70;99.90;;;;;;4956938;28;20283;-78
2021/03/03 09:35:03;;;;;;;84.93;39.83;;;5.80;99.90;;;;;;4964490;28;20487;-79
2021/03/03 09:37:37;;;;;;;91.03;39.90;;;5.80;99.90;;;;;;4963795;28;20808;-78
2021/03/03 09:40:05;;;;;;;85.13;39.53;;;5.90;99.90;;;;;;4965287;28;20213;-79
2021/03/03 09:42:38;;;;;;;84.20;38.20;;;5.90;99.90;;;;;;4964892;28;20220;-79
2021/03/03 09:45:07;;;;;;;73.73;35.57;;;5.90;99.90;;;;;;4965373;28;20319;-79
2021/03/03 09:47:35;;;;;;;68.27;34.67;;;5.90;99.90;;;;;;4964576;28;20197;-79
2021/03/03 09:50:04;;;;;;;63.83;32.07;;;6.00;99.90;;;;;;4964145;28;20197;-78
2021/03/03 09:52:42;;;;;;;74.17;35.33;;;6.00;99.90;;;;;;4980650;28;20251;-77
2021/03/03 09:55:10;;;;;;;72.17;33.50;;;6.00;99.90;;;;;;4984664;28;20219;-76
2021/03/03 09:57:37;;;;;;;76.17;35.80;;;6.10;99.90;;;;;;4982950;28;20223;-79
2021/03/03 10:00:07;;;;;;;71.03;37.50;;;6.10;99.90;;;;;;4985017;28;20559;-77
2021/03/03 10:02:34;;;;;;;68.93;36.50;;;6.10;99.90;;;;;;4981574;28;20332;-80
2021/03/03 10:05:02;;;;;;;70.10;36.77;;;6.10;99.90;;;;;;4965464;28;20205;-80
2021/03/03 10:07:29;;;;;;;78.23;37.50;;;6.10;99.90;;;;;;4964911;28;20755;-80
2021/03/03 10:09:58;;;;;;;84.03;40.60;;;6.20;99.90;;;;;;4948201;28;20212;-78
2021/03/03 10:12:26;;;;;;;81.93;39.20;;;6.20;99.90;;;;;;4963690;28;20208;-78
2021/03/03 10:15:06;;;;;;;78.57;38.27;;;6.20;99.90;;;;;;4965785;28;20209;-80
2021/03/03 10:17:35;;;;;;;73.20;38.53;;;6.20;99.90;;;;;;4966245;28;20882;-80
2021/03/03 10:20:03;;;;;;;76.23;36.97;;;6.20;99.90;;;;;;4966145;28;20228;-79
2021/03/03 10:22:30;;;;;;;79.47;37.97;;;6.20;99.90;;;;;;4969302;28;20341;-79
2021/03/03 10:25:02;;;;;;;71.30;34.50;;;6.30;99.90;;;;;;4985616;28;20270;-79
2021/03/03 10:27:36;;;;;;;75.10;36.13;;;6.40;99.90;;;;;;4988695;28;20263;-80
2021/03/03 10:30:21;;;;;;;63.40;34.70;;;6.20;99.90;;;;;;4988741;28;20196;-79
2021/03/03 10:32:48;;;;;;;66.50;35.80;;;6.20;99.90;;;;;;4988062;28;20220;-79
2021/03/03 10:35:14;;;;;;;69.03;34.63;;;6.10;99.90;;;;;;4988893;28;20206;-79
2021/03/03 10:37:41;;;;;;;77.17;37.37;;;6.10;99.90;;;;;;4988908;28;20215;-79
2021/03/03 10:40:12;;;;;;;72.53;36.37;;;6.10;99.90;;;;;;4987111;28;20230;-79
2021/03/03 10:42:38;;;;;;;72.03;36.90;;;6.20;99.90;;;;;;4988241;28;20601;-79
2021/03/03 10:45:20;;;;;;;74.87;35.13;;;6.20;99.90;;;;;;4988154;28;20239;-79
2021/03/03 10:47:49;;;;;;;82.33;39.30;;;6.20;99.90;;;;;;4968152;28;20599;-80
2021/03/03 10:50:17;;;;;;;79.63;37.73;;;6.20;99.90;;;;;;4977773;28;20235;-80
2021/03/03 10:52:59;;;;;;;72.93;38.00;;;6.30;99.90;;;;;;4987689;28;20683;-80
2021/03/03 10:55:33;;;;;;;79.07;38.23;;;6.30;99.90;;;;;;4987988;28;20204;-79
2021/03/03 10:58:10;;;;;;;84.53;38.40;;;6.30;99.90;;;;;;4988218;28;20211;-80
2021/03/03 11:00:57;;;;;;;82.97;39.63;;;6.30;99.90;;;;;;4987789;28;20242;-80
2021/03/03 11:03:25;;;;;;;88.33;40.90;;;6.30;99.90;;;;;;4987709;28;20234;-79
2021/03/03 11:05:53;;;;;;;89.03;40.03;;;6.40;99.90;;;;;;4988258;28;20212;-79
2021/03/03 11:08:19;;;;;;;77.27;37.30;;;6.40;99.90;;;;;;4984928;28;20215;-78
2021/03/03 11:10:46;;;;;;;82.17;39.47;;;6.50;99.90;;;;;;4968782;28;20271;-80
2021/03/03 11:13:13;;;;;;;77.53;37.83;;;6.50;99.90;;;;;;4969687;28;20207;-79
2021/03/03 11:15:41;;;;;;;87.97;38.10;;;6.60;99.90;;;;;;4967920;28;20212;-79
2021/03/03 11:18:08;;;;;;;83.63;35.43;;;6.60;99.90;;;;;;4968733;28;20598;-78
2021/03/03 11:20:34;;;;;;;87.73;37.10;;;6.60;99.90;;;;;;4988079;28;20294;-78
2021/03/03 11:23:01;;;;;;;96.03;39.20;;;6.60;99.90;;;;;;4987259;28;20211;-78
2021/03/03 11:25:27;;;;;;;91.17;37.87;;;6.70;99.90;;;;;;4971886;28;20208;-79
2021/03/03 11:27:54;;;;;;;95.00;39.80;;;6.70;99.90;;;;;;4978780;28;20219;-79
2021/03/03 11:30:21;;;;;;;89.50;38.93;;;6.70;99.90;;;;;;4981321;28;20208;-79
2021/03/03 11:32:47;;;;;;;96.00;40.37;;;6.80;99.90;;;;;;4986173;28;20196;-79
2021/03/03 11:35:14;;;;;;;87.23;39.83;;;6.90;99.90;;;;;;4987284;28;20203;-79
2021/03/03 11:37:40;;;;;;;100.70;40.90;;;6.80;99.90;;;;;;4985910;28;20203;-80
2021/03/03 11:40:07;;;;;;;86.30;37.10;;;6.90;99.90;;;;;;4986417;28;20239;-79
2021/03/03 11:42:34;;;;;;;99.00;41.13;;;6.90;99.90;;;;;;4985890;28;20212;-80
2021/03/03 11:45:01;;;;;;;101.03;40.93;;;7.00;99.90;;;;;;4980287;28;20660;-79
2021/03/03 11:47:27;;;;;;;99.43;40.07;;;7.00;99.90;;;;;;4967463;28;20256;-79
2021/03/03 11:49:53;;;;;;;98.13;39.43;;;6.90;99.90;;;;;;4967415;28;20201;-79
2021/03/03 11:52:20;;;;;;;97.53;40.43;;;6.90;99.90;;;;;;4967629;28;20325;-79
2021/03/03 11:54:46;;;;;;;96.13;40.20;;;7.00;99.90;;;;;;4967126;28;20209;-79
2021/03/03 11:57:12;;;;;;;87.90;38.73;;;7.00;99.90;;;;;;4966002;28;20527;-79
2021/03/03 11:59:38;;;;;;;82.70;40.27;;;6.90;99.90;;;;;;4967153;28;20225;-79
2021/03/03 12:02:06;;;;;;;86.10;35.63;;;6.90;99.90;;;;;;4968403;28;20205;-80
2021/03/03 12:04:32;;;;;;;86.47;36.50;;;6.90;99.90;;;;;;4984414;28;20219;-80
2021/03/03 12:06:58;;;;;;;74.07;32.60;;;7.00;99.90;;;;;;4986191;28;20239;-79
2021/03/03 12:09:25;;;;;;;68.43;29.83;;;7.00;99.90;;;;;;4986724;28;20230;-78
2021/03/03 12:11:51;;;;;;;71.37;33.23;;;6.90;99.90;;;;;;4982035;28;20914;-78
2021/03/03 12:14:17;;;;;;;67.87;31.50;;;6.90;99.90;;;;;;4975030;28;20248;-79
2021/03/03 12:16:45;;;;;;;75.93;34.13;;;6.80;99.90;;;;;;4978289;28;20488;-79
2021/03/03 12:19:13;;;;;;;82.37;35.67;;;6.80;99.90;;;;;;4979208;28;20244;-79
2021/03/03 12:21:39;;;;;;;79.70;33.80;;;6.80;99.90;;;;;;4974965;28;20189;-79
2021/03/03 12:24:06;;;;;;;83.00;37.13;;;6.90;99.90;;;;;;4975652;28;20210;-79
2021/03/03 12:26:33;;;;;;;70.80;31.53;;;6.90;99.90;;;;;;4973013;28;20208;-78
2021/03/03 12:28:59;;;;;;;83.20;36.30;;;6.90;99.90;;;;;;4973632;28;20207;-79
2021/03/03 12:31:25;;;;;;;94.10;36.97;;;7.10;99.90;;;;;;4980884;28;20208;-78
2021/03/03 12:33:51;;;;;;;91.00;36.77;;;7.10;99.90;;;;;;4974261;28;20209;-79
2021/03/03 12:36:19;;;;;;;85.00;35.03;;;7.10;99.90;;;;;;4978459;28;20212;-78
2021/03/03 12:38:45;;;;;;;86.20;35.90;;;7.10;99.90;;;;;;4978010;28;20203;-79
2021/03/03 12:41:12;;;;;;;80.37;35.00;;;7.20;99.90;;;;;;4974642;28;20285;-78
2021/03/03 12:43:38;;;;;;;72.87;33.37;;;7.20;99.90;;;;;;4977995;28;20215;-79
2021/03/03 12:46:04;;;;;;;68.20;31.13;;;7.20;99.90;;;;;;4975572;28;20235;-79